sensor_id;sensor_type;location;lat;lon;timestamp;pressure;altitude;pressure_sealevel;temperature;humidity
76404;BME280;65232;48.358;2.122;2024-01-11T00:00:03;101932.16;;;-0.78;85.18
76404;BME280;65232;48.358;2.122;2024-01-11T00:00:30;101940.00;;;-0.75;85.37
76404;BME280;65232;48.358;2.122;2024-01-11T00:00:55;101932.03;;;-0.72;85.33
76404;BME280;65232;48.358;2.122;2024-01-11T00:01:20;101930.44;;;-0.79;84.80
76404;BME280;65232;48.358;2.122;2024-01-11T00:01:47;101930.47;;;-0.82;84.71
76404;BME280;65232;48.358;2.122;2024-01-11T00:02:12;101932.22;;;-0.81;84.87
76404;BME280;65232;48.358;2.122;2024-01-11T00:02:38;101933.13;;;-0.83;84.89
76404;BME280;65232;48.358;2.122;2024-01-11T00:03:03;101933.25;;;-0.89;85.19
76404;BME280;65232;48.358;2.122;2024-01-11T00:03:29;101931.53;;;-0.92;85.34
76404;BME280;65232;48.358;2.122;2024-01-11T00:03:54;101928.03;;;-0.92;85.37
76404;BME280;65232;48.358;2.122;2024-01-11T00:04:19;101928.81;;;-0.87;85.38
76404;BME280;65232;48.358;2.122;2024-01-11T00:04:45;101926.28;;;-0.92;85.58
76404;BME280;65232;48.358;2.122;2024-01-11T00:05:10;101924.34;;;-0.82;85.36
76404;BME280;65232;48.358;2.122;2024-01-11T00:05:36;101925.91;;;-0.72;84.85
76404;BME280;65232;48.358;2.122;2024-01-11T00:06:01;101932.94;;;-0.74;84.57
76404;BME280;65232;48.358;2.122;2024-01-11T00:06:27;101931.38;;;-0.83;84.64
76404;BME280;65232;48.358;2.122;2024-01-11T00:06:52;101924.28;;;-0.78;84.97
76404;BME280;65232;48.358;2.122;2024-01-11T00:07:18;101934.00;;;-0.84;84.74
76404;BME280;65232;48.358;2.122;2024-01-11T00:07:43;101934.03;;;-0.86;84.71
76404;BME280;65232;48.358;2.122;2024-01-11T00:08:10;101932.25;;;-0.84;84.40
76404;BME280;65232;48.358;2.122;2024-01-11T00:08:36;101932.28;;;-0.85;84.89
76404;BME280;65232;48.358;2.122;2024-01-11T00:09:01;101933.19;;;-0.88;84.97
76404;BME280;65232;48.358;2.122;2024-01-11T00:09:27;101928.88;;;-0.90;85.63
76404;BME280;65232;48.358;2.122;2024-01-11T00:09:52;101934.16;;;-0.92;85.75
76404;BME280;65232;48.358;2.122;2024-01-11T00:10:18;101935.06;;;-0.93;85.77
76404;BME280;65232;48.358;2.122;2024-01-11T00:10:43;101932.44;;;-0.93;85.73
76404;BME280;65232;48.358;2.122;2024-01-11T00:11:08;101932.38;;;-0.90;85.82
76404;BME280;65232;48.358;2.122;2024-01-11T00:11:34;101933.13;;;-0.83;85.84
76404;BME280;65232;48.358;2.122;2024-01-11T00:11:59;101925.91;;;-0.72;85.86
76404;BME280;65232;48.358;2.122;2024-01-11T00:12:25;101924.16;;;-0.73;85.96
76404;BME280;65232;48.358;2.122;2024-01-11T00:12:50;101935.63;;;-0.76;85.24
76404;BME280;65232;48.358;2.122;2024-01-11T00:13:16;101926.13;;;-0.83;85.25
76404;BME280;65232;48.358;2.122;2024-01-11T00:13:41;101934.88;;;-0.84;85.27
76404;BME280;65232;48.358;2.122;2024-01-11T00:14:06;101934.88;;;-0.84;85.34
76404;BME280;65232;48.358;2.122;2024-01-11T00:14:32;101932.25;;;-0.84;84.99
76404;BME280;65232;48.358;2.122;2024-01-11T00:14:57;101928.75;;;-0.84;85.40
76404;BME280;65232;48.358;2.122;2024-01-11T00:15:24;101933.19;;;-0.88;85.31
76404;BME280;65232;48.358;2.122;2024-01-11T00:15:49;101934.09;;;-0.89;85.73
76404;BME280;65232;48.358;2.122;2024-01-11T00:16:14;101926.25;;;-0.90;86.19
76404;BME280;65232;48.358;2.122;2024-01-11T00:16:41;101930.63;;;-0.89;86.47
76404;BME280;65232;48.358;2.122;2024-01-11T00:17:06;101922.69;;;-0.88;86.27
76404;BME280;65232;48.358;2.122;2024-01-11T00:17:32;101930.63;;;-0.89;86.13
76404;BME280;65232;48.358;2.122;2024-01-11T00:17:57;101927.06;;;-0.87;85.76
76404;BME280;65232;48.358;2.122;2024-01-11T00:18:23;101925.91;;;-0.72;85.68
76404;BME280;65232;48.358;2.122;2024-01-11T00:18:48;101924.34;;;-0.82;85.87
76404;BME280;65232;48.358;2.122;2024-01-11T00:19:13;101928.69;;;-0.80;86.15
76404;BME280;65232;48.358;2.122;2024-01-11T00:19:39;101933.13;;;-0.83;86.60
76404;BME280;65232;48.358;2.122;2024-01-11T00:20:05;101927.91;;;-0.85;86.69
76404;BME280;65232;48.358;2.122;2024-01-11T00:20:30;101929.69;;;-0.87;87.39
76404;BME280;65232;48.358;2.122;2024-01-11T00:20:56;101932.44;;;-0.93;87.18
76404;BME280;65232;48.358;2.122;2024-01-11T00:21:21;101932.31;;;-0.88;87.58
76404;BME280;65232;48.358;2.122;2024-01-11T00:21:47;101932.25;;;-0.84;87.55
76404;BME280;65232;48.358;2.122;2024-01-11T00:22:12;101932.25;;;-0.84;87.63
76404;BME280;65232;48.358;2.122;2024-01-11T00:22:37;101929.63;;;-0.84;87.10
76404;BME280;65232;48.358;2.122;2024-01-11T00:23:03;101936.53;;;-0.77;86.95
76404;BME280;65232;48.358;2.122;2024-01-11T00:23:28;101923.47;;;-0.83;86.37
76404;BME280;65232;48.358;2.122;2024-01-11T00:23:54;101923.72;;;-0.96;86.07
76404;BME280;65232;48.358;2.122;2024-01-11T00:24:19;101932.41;;;-0.91;86.41
76404;BME280;65232;48.358;2.122;2024-01-11T00:24:45;101927.22;;;-0.96;86.64
76404;BME280;65232;48.358;2.122;2024-01-11T00:25:10;101930.69;;;-0.94;86.62
76404;BME280;65232;48.358;2.122;2024-01-11T00:25:36;101928.06;;;-0.94;86.73
76404;BME280;65232;48.358;2.122;2024-01-11T00:26:01;101927.06;;;-0.88;86.75
76404;BME280;65232;48.358;2.122;2024-01-11T00:26:27;101924.44;;;-0.88;86.67
76404;BME280;65232;48.358;2.122;2024-01-11T00:26:52;101919.00;;;-0.76;86.55
76404;BME280;65232;48.358;2.122;2024-01-11T00:27:17;101926.94;;;-0.79;86.48
76404;BME280;65232;48.358;2.122;2024-01-11T00:27:43;101921.69;;;-0.81;86.54
76404;BME280;65232;48.358;2.122;2024-01-11T00:28:08;101926.13;;;-0.83;86.78
76404;BME280;65232;48.358;2.122;2024-01-11T00:28:34;101922.56;;;-0.80;86.79
76404;BME280;65232;48.358;2.122;2024-01-11T00:28:59;101921.69;;;-0.79;86.60
76404;BME280;65232;48.358;2.122;2024-01-11T00:29:24;101923.38;;;-0.77;86.44
76404;BME280;65232;48.358;2.122;2024-01-11T00:29:50;101914.56;;;-0.74;86.47
76404;BME280;65232;48.358;2.122;2024-01-11T00:30:15;101916.25;;;-0.72;86.48
76404;BME280;65232;48.358;2.122;2024-01-11T00:30:41;101917.97;;;-0.69;86.55
76404;BME280;65232;48.358;2.122;2024-01-11T00:31:06;101921.50;;;-0.70;86.52
76404;BME280;65232;48.358;2.122;2024-01-11T00:31:31;101915.25;;;-0.63;86.77
76404;BME280;65232;48.358;2.122;2024-01-11T00:31:57;101912.69;;;-0.67;86.47
76404;BME280;65232;48.358;2.122;2024-01-11T00:32:23;101915.31;;;-0.67;86.23
76404;BME280;65232;48.358;2.122;2024-01-11T00:32:48;101914.63;;;-0.76;86.16
76404;BME280;65232;48.358;2.122;2024-01-11T00:33:14;101921.63;;;-0.76;85.81
76404;BME280;65232;48.358;2.122;2024-01-11T00:33:39;101920.69;;;-0.74;85.63
76404;BME280;65232;48.358;2.122;2024-01-11T00:34:05;101917.09;;;-0.69;85.57
76404;BME280;65232;48.358;2.122;2024-01-11T00:34:30;101923.22;;;-0.67;85.65
76404;BME280;65232;48.358;2.122;2024-01-11T00:34:56;101919.69;;;-0.66;86.57
76404;BME280;65232;48.358;2.122;2024-01-11T00:35:21;101921.47;;;-0.68;87.19
76404;BME280;65232;48.358;2.122;2024-01-11T00:35:47;101918.88;;;-0.72;87.58
76404;BME280;65232;48.358;2.122;2024-01-11T00:36:18;101924.06;;;-0.67;86.97
76404;BME280;65232;48.358;2.122;2024-01-11T00:36:44;101918.03;;;-0.74;87.53
76404;BME280;65232;48.358;2.122;2024-01-11T00:37:09;101924.97;;;-0.68;86.90
76404;BME280;65232;48.358;2.122;2024-01-11T00:37:35;101931.19;;;-0.74;86.79
76404;BME280;65232;48.358;2.122;2024-01-11T00:38:00;101932.03;;;-0.72;86.85
76404;BME280;65232;48.358;2.122;2024-01-11T00:38:25;101926.81;;;-0.73;86.94
76404;BME280;65232;48.358;2.122;2024-01-11T00:38:51;101932.06;;;-0.73;86.96
76404;BME280;65232;48.358;2.122;2024-01-11T00:39:16;101921.47;;;-0.68;86.47
76404;BME280;65232;48.358;2.122;2024-01-11T00:39:42;101922.28;;;-0.65;86.79
76404;BME280;65232;48.358;2.122;2024-01-11T00:40:07;101926.63;;;-0.62;86.33
76404;BME280;65232;48.358;2.122;2024-01-11T00:40:33;101924.00;;;-0.62;86.46
76404;BME280;65232;48.358;2.122;2024-01-11T00:40:58;101929.25;;;-0.62;86.55
76404;BME280;65232;48.358;2.122;2024-01-11T00:41:24;101927.31;;;-0.53;86.13
76404;BME280;65232;48.358;2.122;2024-01-11T00:41:50;101924.56;;;-0.47;85.66
76404;BME280;65232;48.358;2.122;2024-01-11T00:42:16;101930.69;;;-0.45;85.55
76404;BME280;65232;48.358;2.122;2024-01-11T00:42:41;101923.72;;;-0.47;85.48
76404;BME280;65232;48.358;2.122;2024-01-11T00:43:07;101934.31;;;-0.52;85.37
76404;BME280;65232;48.358;2.122;2024-01-11T00:43:32;101928.28;;;-0.58;84.91
76404;BME280;65232;48.358;2.122;2024-01-11T00:43:58;101932.13;;;-0.76;85.42
76404;BME280;65232;48.358;2.122;2024-01-11T00:44:23;101928.66;;;-0.77;85.68
76404;BME280;65232;48.358;2.122;2024-01-11T00:44:49;101926.03;;;-0.78;85.95
76404;BME280;65232;48.358;2.122;2024-01-11T00:45:14;101931.97;;;-0.68;85.73
76404;BME280;65232;48.358;2.122;2024-01-11T00:45:40;101934.66;;;-0.72;85.29
76404;BME280;65232;48.358;2.122;2024-01-11T00:46:05;101930.31;;;-0.74;85.61
76404;BME280;65232;48.358;2.122;2024-01-11T00:46:31;101928.63;;;-0.75;85.61
76404;BME280;65232;48.358;2.122;2024-01-11T00:46:56;101930.44;;;-0.80;85.74
76404;BME280;65232;48.358;2.122;2024-01-11T00:47:22;101936.50;;;-0.75;86.09
76404;BME280;65232;48.358;2.122;2024-01-11T00:47:47;101933.81;;;-0.74;85.96
76404;BME280;65232;48.358;2.122;2024-01-11T00:48:13;101933.03;;;-0.77;86.12
76404;BME280;65232;48.358;2.122;2024-01-11T00:48:38;101928.63;;;-0.75;86.50
76404;BME280;65232;48.358;2.122;2024-01-11T00:49:04;101934.69;;;-0.73;86.16
76404;BME280;65232;48.358;2.122;2024-01-11T00:49:29;101942.50;;;-0.68;85.84
76404;BME280;65232;48.358;2.122;2024-01-11T00:49:54;101938.16;;;-0.71;85.46
76404;BME280;65232;48.358;2.122;2024-01-11T00:50:20;101939.16;;;-0.77;85.68
76404;BME280;65232;48.358;2.122;2024-01-11T00:50:47;101940.94;;;-0.79;85.39
76404;BME280;65232;48.358;2.122;2024-01-11T00:51:13;101936.56;;;-0.80;85.80
76404;BME280;65232;48.358;2.122;2024-01-11T00:51:38;101940.00;;;-0.75;85.76
76404;BME280;65232;48.358;2.122;2024-01-11T00:52:04;101940.94;;;-0.79;85.88
76404;BME280;65232;48.358;2.122;2024-01-11T00:52:30;101948.66;;;-0.69;85.84
76404;BME280;65232;48.358;2.122;2024-01-11T00:52:55;101931.97;;;-0.68;85.32
76404;BME280;65232;48.358;2.122;2024-01-11T00:53:21;101937.25;;;-0.70;85.27
76404;BME280;65232;48.358;2.122;2024-01-11T00:53:46;101940.88;;;-0.76;85.54
76404;BME280;65232;48.358;2.122;2024-01-11T00:54:12;101941.69;;;-0.74;85.64
76404;BME280;65232;48.358;2.122;2024-01-11T00:54:37;101941.63;;;-0.69;85.66
76404;BME280;65232;48.358;2.122;2024-01-11T00:55:03;101944.31;;;-0.74;85.73
76404;BME280;65232;48.358;2.122;2024-01-11T00:55:29;101943.28;;;-0.63;85.09
76404;BME280;65232;48.358;2.122;2024-01-11T00:55:54;101945.16;;;-0.70;84.85
76404;BME280;65232;48.358;2.122;2024-01-11T00:56:20;101939.16;;;-0.77;85.07
76404;BME280;65232;48.358;2.122;2024-01-11T00:56:45;101937.44;;;-0.79;85.40
76404;BME280;65232;48.358;2.122;2024-01-11T00:57:11;101939.94;;;-0.73;85.23
76404;BME280;65232;48.358;2.122;2024-01-11T00:57:36;101939.06;;;-0.74;85.38
76404;BME280;65232;48.358;2.122;2024-01-11T00:58:02;101939.06;;;-0.74;85.24
76404;BME280;65232;48.358;2.122;2024-01-11T00:58:27;101937.13;;;-0.61;84.76
76404;BME280;65232;48.358;2.122;2024-01-11T00:58:53;101935.47;;;-0.66;84.88
76404;BME280;65232;48.358;2.122;2024-01-11T00:59:18;101940.78;;;-0.71;84.88
76404;BME280;65232;48.358;2.122;2024-01-11T00:59:44;101933.81;;;-0.74;85.20
76404;BME280;65232;48.358;2.122;2024-01-11T01:00:10;101936.44;;;-0.74;85.56
76404;BME280;65232;48.358;2.122;2024-01-11T01:00:39;101938.19;;;-0.74;85.21
76404;BME280;65232;48.358;2.122;2024-01-11T01:01:08;101941.81;;;-0.80;84.81
76404;BME280;65232;48.358;2.122;2024-01-11T01:01:34;101938.34;;;-0.82;85.11
76404;BME280;65232;48.358;2.122;2024-01-11T01:01:59;101943.63;;;-0.83;84.99
76404;BME280;65232;48.358;2.122;2024-01-11T01:02:25;101944.53;;;-0.86;85.25
76404;BME280;65232;48.358;2.122;2024-01-11T01:02:50;101942.03;;;-0.90;85.35
76404;BME280;65232;48.358;2.122;2024-01-11T01:03:16;101944.75;;;-0.96;85.66
76404;BME280;65232;48.358;2.122;2024-01-11T01:03:41;101944.69;;;-0.93;85.93
76404;BME280;65232;48.358;2.122;2024-01-11T01:04:07;101946.50;;;-0.97;85.71
76404;BME280;65232;48.358;2.122;2024-01-11T01:04:32;101942.16;;;-0.99;86.10
76404;BME280;65232;48.358;2.122;2024-01-11T01:04:57;101943.88;;;-0.97;85.97
76404;BME280;65232;48.358;2.122;2024-01-11T01:05:23;101947.47;;;-1.02;86.05
76404;BME280;65232;48.358;2.122;2024-01-11T01:05:48;101950.03;;;-0.98;86.40
76404;BME280;65232;48.358;2.122;2024-01-11T01:06:14;101946.44;;;-0.94;86.39
76404;BME280;65232;48.358;2.122;2024-01-11T01:06:39;101952.59;;;-0.95;85.97
76404;BME280;65232;48.358;2.122;2024-01-11T01:07:06;101956.94;;;-0.92;86.39
76404;BME280;65232;48.358;2.122;2024-01-11T01:07:31;101949.09;;;-0.95;86.52
76404;BME280;65232;48.358;2.122;2024-01-11T01:07:56;101952.56;;;-0.92;86.69
76404;BME280;65232;48.358;2.122;2024-01-11T01:08:22;101951.69;;;-0.92;86.97
76404;BME280;65232;48.358;2.122;2024-01-11T01:08:47;101950.78;;;-0.90;86.91
76404;BME280;65232;48.358;2.122;2024-01-11T01:09:13;101954.16;;;-0.83;86.83
76404;BME280;65232;48.358;2.122;2024-01-11T01:09:38;101950.66;;;-0.84;86.83
76404;BME280;65232;48.358;2.122;2024-01-11T01:10:04;101954.28;;;-0.91;86.53
76404;BME280;65232;48.358;2.122;2024-01-11T01:10:30;101954.31;;;-0.92;86.53
76404;BME280;65232;48.358;2.122;2024-01-11T01:10:55;101950.78;;;-0.90;86.30
76404;BME280;65232;48.358;2.122;2024-01-11T01:11:20;101954.28;;;-0.91;85.80
76404;BME280;65232;48.358;2.122;2024-01-11T01:11:46;101954.53;;;-1.04;86.19
76404;BME280;65232;48.358;2.122;2024-01-11T01:12:11;101952.81;;;-1.07;86.44
76404;BME280;65232;48.358;2.122;2024-01-11T01:12:37;101946.78;;;-1.15;86.88
76404;BME280;65232;48.358;2.122;2024-01-11T01:13:02;101952.81;;;-1.09;87.11
76404;BME280;65232;48.358;2.122;2024-01-11T01:13:28;101955.47;;;-1.10;86.97
76404;BME280;65232;48.358;2.122;2024-01-11T01:13:53;101950.22;;;-1.10;87.23
76404;BME280;65232;48.358;2.122;2024-01-11T01:14:19;101958.13;;;-1.12;87.28
76404;BME280;65232;48.358;2.122;2024-01-11T01:14:44;101949.34;;;-1.11;87.56
76404;BME280;65232;48.358;2.122;2024-01-11T01:15:09;101951.94;;;-1.08;87.29
76404;BME280;65232;48.358;2.122;2024-01-11T01:15:35;101951.97;;;-1.09;87.02
76404;BME280;65232;48.358;2.122;2024-01-11T01:16:00;101959.81;;;-1.08;87.69
76404;BME280;65232;48.358;2.122;2024-01-11T01:16:26;101950.19;;;-1.07;87.63
76404;BME280;65232;48.358;2.122;2024-01-11T01:16:51;101951.91;;;-1.06;87.58
76404;BME280;65232;48.358;2.122;2024-01-11T01:17:17;101964.09;;;-1.02;87.42
76404;BME280;65232;48.358;2.122;2024-01-11T01:17:42;101956.19;;;-1.00;87.65
76404;BME280;65232;48.358;2.122;2024-01-11T01:18:07;101957.09;;;-1.03;87.55
76404;BME280;65232;48.358;2.122;2024-01-11T01:18:33;101954.44;;;-1.01;87.03
76404;BME280;65232;48.358;2.122;2024-01-11T01:18:58;101962.25;;;-0.97;86.99
76404;BME280;65232;48.358;2.122;2024-01-11T01:19:24;101957.91;;;-0.99;87.20
76404;BME280;65232;48.358;2.122;2024-01-11T01:19:49;101953.50;;;-0.97;87.24
76404;BME280;65232;48.358;2.122;2024-01-11T01:20:15;101955.19;;;-0.93;86.74
76404;BME280;65232;48.358;2.122;2024-01-11T01:20:40;101960.47;;;-0.93;87.05
76404;BME280;65232;48.358;2.122;2024-01-11T01:21:06;101963.94;;;-0.93;87.07
76404;BME280;65232;48.358;2.122;2024-01-11T01:21:32;101954.34;;;-0.94;86.63
76404;BME280;65232;48.358;2.122;2024-01-11T01:21:57;101955.34;;;-1.02;86.87
76404;BME280;65232;48.358;2.122;2024-01-11T01:22:23;101960.50;;;-0.96;86.75
76404;BME280;65232;48.358;2.122;2024-01-11T01:22:49;101965.69;;;-0.92;86.52
76404;BME280;65232;48.358;2.122;2024-01-11T01:23:14;101972.69;;;-0.92;86.11
76404;BME280;65232;48.358;2.122;2024-01-11T01:23:40;101965.75;;;-0.96;85.92
76404;BME280;65232;48.358;2.122;2024-01-11T01:24:05;101964.88;;;-0.97;86.31
76404;BME280;65232;48.358;2.122;2024-01-11T01:24:31;101966.69;;;-1.00;86.52
76404;BME280;65232;48.358;2.122;2024-01-11T01:24:57;101965.06;;;-1.08;86.46
76404;BME280;65232;48.358;2.122;2024-01-11T01:25:22;101968.59;;;-1.09;86.69
76404;BME280;65232;48.358;2.122;2024-01-11T01:25:48;101967.59;;;-1.03;86.88
76404;BME280;65232;48.358;2.122;2024-01-11T01:26:14;101962.31;;;-1.00;86.50
76404;BME280;65232;48.358;2.122;2024-01-11T01:26:39;101965.81;;;-1.01;86.22
76404;BME280;65232;48.358;2.122;2024-01-11T01:27:05;101963.09;;;-0.93;85.94
76404;BME280;65232;48.358;2.122;2024-01-11T01:27:30;101967.56;;;-1.00;86.38
76404;BME280;65232;48.358;2.122;2024-01-11T01:27:56;101968.56;;;-1.07;86.44
76404;BME280;65232;48.358;2.122;2024-01-11T01:28:22;101970.34;;;-1.09;86.59
76404;BME280;65232;48.358;2.122;2024-01-11T01:28:47;101975.59;;;-1.09;86.74
76404;BME280;65232;48.358;2.122;2024-01-11T01:29:12;101972.09;;;-1.08;86.77
76404;BME280;65232;48.358;2.122;2024-01-11T01:29:38;101974.59;;;-1.03;86.45
76404;BME280;65232;48.358;2.122;2024-01-11T01:30:04;101966.78;;;-1.05;86.63
76404;BME280;65232;48.358;2.122;2024-01-11T01:30:29;101975.47;;;-1.01;86.48
76404;BME280;65232;48.358;2.122;2024-01-11T01:30:55;101972.78;;;-0.98;86.74
76404;BME280;65232;48.358;2.122;2024-01-11T01:31:21;101973.72;;;-1.02;86.57
76404;BME280;65232;48.358;2.122;2024-01-11T01:31:46;101972.84;;;-1.01;86.36
76404;BME280;65232;48.358;2.122;2024-01-11T01:32:12;101978.06;;;-1.00;86.31
76404;BME280;65232;48.358;2.122;2024-01-11T01:32:37;101970.22;;;-1.03;86.71
76404;BME280;65232;48.358;2.122;2024-01-11T01:33:03;101970.16;;;-0.98;86.93
76404;BME280;65232;48.358;2.122;2024-01-11T01:33:29;101972.78;;;-0.97;86.40
76404;BME280;65232;48.358;2.122;2024-01-11T01:33:54;101971.81;;;-0.91;86.32
76404;BME280;65232;48.358;2.122;2024-01-11T01:34:19;101974.44;;;-0.91;86.13
76404;BME280;65232;48.358;2.122;2024-01-11T01:34:45;101973.66;;;-0.98;86.30
76404;BME280;65232;48.358;2.122;2024-01-11T01:35:10;101972.81;;;-1.00;86.40
76404;BME280;65232;48.358;2.122;2024-01-11T01:35:36;101965.94;;;-1.07;86.47
76404;BME280;65232;48.358;2.122;2024-01-11T01:36:02;101969.47;;;-1.08;86.38
76404;BME280;65232;48.358;2.122;2024-01-11T01:36:27;101978.22;;;-1.09;86.51
76404;BME280;65232;48.358;2.122;2024-01-11T01:36:53;101968.47;;;-1.02;86.19
76404;BME280;65232;48.358;2.122;2024-01-11T01:37:18;101975.63;;;-1.11;86.55
76404;BME280;65232;48.358;2.122;2024-01-11T01:37:44;101969.50;;;-1.11;86.59
76404;BME280;65232;48.358;2.122;2024-01-11T01:38:09;101968.59;;;-1.10;86.43
76404;BME280;65232;48.358;2.122;2024-01-11T01:38:35;101979.13;;;-1.12;86.59
76404;BME280;65232;48.358;2.122;2024-01-11T01:39:00;101980.09;;;-1.19;87.03
76404;BME280;65232;48.358;2.122;2024-01-11T01:39:25;101983.47;;;-1.09;86.95
76404;BME280;65232;48.358;2.122;2024-01-11T01:39:51;101972.94;;;-1.06;86.74
76404;BME280;65232;48.358;2.122;2024-01-11T01:40:16;101979.03;;;-1.04;86.70
76404;BME280;65232;48.358;2.122;2024-01-11T01:40:42;101980.72;;;-1.03;86.67
76404;BME280;65232;48.358;2.122;2024-01-11T01:41:07;101978.94;;;-0.99;86.43
76404;BME280;65232;48.358;2.122;2024-01-11T01:41:33;101982.44;;;-1.00;86.47
76404;BME280;65232;48.358;2.122;2024-01-11T01:41:58;101982.38;;;-0.94;86.41
76404;BME280;65232;48.358;2.122;2024-01-11T01:42:23;101975.28;;;-0.89;86.40
76404;BME280;65232;48.358;2.122;2024-01-11T01:42:49;101980.56;;;-0.91;86.57
76404;BME280;65232;48.358;2.122;2024-01-11T01:43:14;101981.44;;;-0.90;85.99
76404;BME280;65232;48.358;2.122;2024-01-11T01:43:40;101986.63;;;-0.89;85.95
76404;BME280;65232;48.358;2.122;2024-01-11T01:44:05;101989.31;;;-0.90;85.88
76404;BME280;65232;48.358;2.122;2024-01-11T01:44:30;101997.13;;;-0.87;85.51
76404;BME280;65232;48.358;2.122;2024-01-11T01:44:56;101990.09;;;-0.87;85.39
76404;BME280;65232;48.358;2.122;2024-01-11T01:45:21;101992.75;;;-0.88;85.51
76404;BME280;65232;48.358;2.122;2024-01-11T01:45:47;101987.44;;;-0.85;85.32
76404;BME280;65232;48.358;2.122;2024-01-11T01:46:16;101995.38;;;-0.88;85.31
76404;BME280;65232;48.358;2.122;2024-01-11T01:46:44;101992.81;;;-0.90;85.43
76404;BME280;65232;48.358;2.122;2024-01-11T01:47:10;101990.19;;;-0.91;85.86
76404;BME280;65232;48.358;2.122;2024-01-11T01:47:36;101990.06;;;-0.85;85.83
76404;BME280;65232;48.358;2.122;2024-01-11T01:48:03;101988.38;;;-0.88;85.68
76404;BME280;65232;48.358;2.122;2024-01-11T01:48:29;101993.63;;;-0.88;85.72
76404;BME280;65232;48.358;2.122;2024-01-11T01:48:57;101983.97;;;-0.86;85.66
76404;BME280;65232;48.358;2.122;2024-01-11T01:49:23;101989.22;;;-0.86;85.73
76404;BME280;65232;48.358;2.122;2024-01-11T01:49:48;101991.84;;;-0.86;86.09
76404;BME280;65232;48.358;2.122;2024-01-11T01:50:14;101987.50;;;-0.88;86.16
76404;BME280;65232;48.358;2.122;2024-01-11T01:50:40;101993.69;;;-0.89;85.90
76404;BME280;65232;48.358;2.122;2024-01-11T01:51:07;101991.88;;;-0.89;85.72
76404;BME280;65232;48.358;2.122;2024-01-11T01:51:33;101986.69;;;-0.90;86.14
76404;BME280;65232;48.358;2.122;2024-01-11T01:51:59;101994.34;;;-0.78;85.50
76404;BME280;65232;48.358;2.122;2024-01-11T01:52:24;101988.28;;;-0.82;85.47
76404;BME280;65232;48.358;2.122;2024-01-11T01:52:50;101988.28;;;-0.82;85.43
76404;BME280;65232;48.358;2.122;2024-01-11T01:53:17;101991.81;;;-0.84;85.26
76404;BME280;65232;48.358;2.122;2024-01-11T01:53:43;101987.59;;;-0.93;85.65
76404;BME280;65232;48.358;2.122;2024-01-11T01:54:09;101991.13;;;-0.94;85.90
76404;BME280;65232;48.358;2.122;2024-01-11T01:54:35;101991.94;;;-0.90;86.01
76404;BME280;65232;48.358;2.122;2024-01-11T01:55:02;101992.06;;;-0.99;85.92
76404;BME280;65232;48.358;2.122;2024-01-11T01:55:29;101992.25;;;-1.10;86.33
76404;BME280;65232;48.358;2.122;2024-01-11T01:55:55;101992.28;;;-1.13;86.43
76404;BME280;65232;48.358;2.122;2024-01-11T01:56:21;101988.78;;;-1.14;86.66
76404;BME280;65232;48.358;2.122;2024-01-11T01:56:47;101994.81;;;-1.07;86.71
76404;BME280;65232;48.358;2.122;2024-01-11T01:57:14;101995.75;;;-1.10;86.69
76404;BME280;65232;48.358;2.122;2024-01-11T01:57:42;101994.81;;;-1.07;86.61
76404;BME280;65232;48.358;2.122;2024-01-11T01:58:09;101991.34;;;-1.08;86.54
76404;BME280;65232;48.358;2.122;2024-01-11T01:58:35;101999.09;;;-1.01;86.33
76404;BME280;65232;48.358;2.122;2024-01-11T01:59:01;101989.56;;;-1.05;86.51
76404;BME280;65232;48.358;2.122;2024-01-11T01:59:29;101993.91;;;-1.04;86.34
76404;BME280;65232;48.358;2.122;2024-01-11T01:59:56;101999.09;;;-1.01;86.28
76404;BME280;65232;48.358;2.122;2024-01-11T02:00:22;102000.06;;;-1.05;86.51
76404;BME280;65232;48.358;2.122;2024-01-11T02:00:49;102000.09;;;-1.07;86.50
76404;BME280;65232;48.358;2.122;2024-01-11T02:01:15;101991.31;;;-1.06;86.34
76404;BME280;65232;48.358;2.122;2024-01-11T02:01:41;101999.06;;;-1.00;86.42
76404;BME280;65232;48.358;2.122;2024-01-11T02:02:07;101993.88;;;-1.03;86.20
76404;BME280;65232;48.358;2.122;2024-01-11T02:02:34;101995.59;;;-1.02;86.44
76404;BME280;65232;48.358;2.122;2024-01-11T02:03:00;102002.63;;;-1.02;86.62
76404;BME280;65232;48.358;2.122;2024-01-11T02:03:27;102006.06;;;-0.99;86.78
76404;BME280;65232;48.358;2.122;2024-01-11T02:03:54;101999.06;;;-0.98;86.46
76404;BME280;65232;48.358;2.122;2024-01-11T02:04:19;102000.78;;;-0.96;86.77
76404;BME280;65232;48.358;2.122;2024-01-11T02:04:45;102004.28;;;-0.97;86.57
76404;BME280;65232;48.358;2.122;2024-01-11T02:05:12;101998.16;;;-0.97;86.53
76404;BME280;65232;48.358;2.122;2024-01-11T02:05:38;102004.31;;;-0.98;86.47
76404;BME280;65232;48.358;2.122;2024-01-11T02:06:04;102003.50;;;-1.03;86.75
76404;BME280;65232;48.358;2.122;2024-01-11T02:06:33;102006.09;;;-1.00;86.60
76404;BME280;65232;48.358;2.122;2024-01-11T02:06:59;102005.19;;;-0.98;86.18
76404;BME280;65232;48.358;2.122;2024-01-11T02:07:25;101997.97;;;-0.87;86.04
76404;BME280;65232;48.358;2.122;2024-01-11T02:07:50;102002.31;;;-0.84;85.76
76404;BME280;65232;48.358;2.122;2024-01-11T02:08:16;101993.63;;;-0.88;85.82
76404;BME280;65232;48.358;2.122;2024-01-11T02:08:45;101998.88;;;-0.88;85.93
76404;BME280;65232;48.358;2.122;2024-01-11T02:09:13;101996.31;;;-0.89;86.13
76404;BME280;65232;48.358;2.122;2024-01-11T02:09:39;102003.31;;;-0.90;86.05
76404;BME280;65232;48.358;2.122;2024-01-11T02:10:06;102003.97;;;-0.77;85.34
76404;BME280;65232;48.358;2.122;2024-01-11T02:10:32;102000.63;;;-0.88;85.36
76404;BME280;65232;48.358;2.122;2024-01-11T02:10:59;101998.94;;;-0.91;85.51
76404;BME280;65232;48.358;2.122;2024-01-11T02:11:26;101994.47;;;-0.86;85.52
76404;BME280;65232;48.358;2.122;2024-01-11T02:11:52;101998.88;;;-0.88;85.33
76404;BME280;65232;48.358;2.122;2024-01-11T02:12:18;102005.00;;;-0.87;85.62
76404;BME280;65232;48.358;2.122;2024-01-11T02:12:44;101997.19;;;-0.90;85.58
76404;BME280;65232;48.358;2.122;2024-01-11T02:13:11;102005.97;;;-0.91;85.80
76404;BME280;65232;48.358;2.122;2024-01-11T02:13:38;101992.72;;;-0.87;85.70
76404;BME280;65232;48.358;2.122;2024-01-11T02:14:03;102005.06;;;-0.90;85.87
76404;BME280;65232;48.358;2.122;2024-01-11T02:14:30;101999.81;;;-0.90;85.80